| Date | Time | Temp. (oF) | Dew Point (oF) | Rel. Hum. (%) | Press. (in.) | Wind Dir. (deg.) | Wind Speed (mph) | Hourly Rainfall (i n.) |
|
|---|---|---|---|---|---|---|---|---|---|
| 1 | 11/16 | 24:00 | 39 | 24 | 56 | 29.71 | 310 | 9 | 0.00 |
| 2 | 11/15 | 23:00 | 39 | 25 | 57 | 29.72 | 310 | 10 | 0.00 |
| 3 | 11/15 | 22:00 | 39 | 25 | 57 | 29.73 | 340 | 9 | 0.00 |
| 4 | 11/15 | 21:00 | 40 | 25 | 55 | 29.74 | 250 | 10 | 0.00 |
| 5 | 11/15 | 20:00 | 40 | 25 | 55 | 29.75 | 270 | 9 | 0.00 |
| 6 | 11/15 | 19:00 | 41 | 24 | 52 | 29.75 | 290 | 9 | 0.00 |
| 7 | 11/15 | 18:00 | 43 | 25 | 50 | 29.76 | 260 | 10 | 0.00 |
| 8 | 11/15 | 17:00 | 42 | 21 | 44 | 29.75 | 290 | 2 | 0.00 |
| 9 | 11/15 | 16:00 | 44 | 19 | 38 | 29.78 | 330 | 7 | 0.00 |
| 10 | 11/15 | 15:00 | 44 | 19 | 37 | 29.79 | 320 | 10 | 0.00 |
| 11 | 11/15 | 14:00 | 46 | 20 | 36 | 29.79 | 290 | 12 | 0.00 |
| 12 | 11/15 | 13:00 | 46 | 20 | 36 | 29.81 | 350 | 9 | 0.00 |
| 13 | 11/15 | 12:00 | 47 | 21 | 37 | 29.83 | 290 | 9 | 0.00 |
| 14 | 11/15 | 11:00 | 45 | 21 | 39 | 29.88 | 330 | 10 | 0.00 |
| 15 | 11/15 | 10:00 | 47 | 24 | 42 | 29.90 | 280 | 10 | 0.00 |
| 16 | 11/15 | 09:00 | 46 | 24 | 43 | 29.90 | 260 | 14 | 0.00 |
| 17 | 11/15 | 08:00 | 44 | 25 | 49 | 29.90 | 330 | 6 | 0.00 |
| 18 | 11/15 | 07:00 | 43 | 23 | 45 | 29.90 | 330 | 4 | 0.00 |
| 19 | 11/15 | 06:00 | 45 | 24 | 45 | 29.90 | 290 | 9 | 0.00 |
| 20 | 11/15 | 05:00 | 44 | 24 | 46 | 29.90 | 330 | 7 | 0.00 |
| 21 | 11/15 | 04:00 | 45 | 24 | 44 | 29.89 | 310 | 7 | 0.00 |
| 22 | 11/15 | 03:00 | 45 | 25 | 47 | 29.90 | 320 | 10 | 0.00 |
| 23 | 11/15 | 02:00 | 45 | 23 | 43 | 29.90 | 350 | 10 | 0.00 |
| 24 | 11/15 | 01:00 | 45 | 23 | 42 | 29.89 | 340 | 11 | 0.00 |